sensor_id;sensor_type;location;lat;lon;timestamp;P1;durP1;ratioP1;P2;durP2;ratioP2
45714;SDS011;31430;61.646;24.704;2023-06-05T00:01:28;30.08;;;28.17;;
45714;SDS011;31430;61.646;24.704;2023-06-05T00:03:53;28.77;;;26.98;;
45714;SDS011;31430;61.646;24.704;2023-06-05T00:06:19;30.13;;;28.23;;
45714;SDS011;31430;61.646;24.704;2023-06-05T00:22:39;55.17;;;51.75;;
45714;SDS011;31430;61.646;24.704;2023-06-05T00:25:05;46.50;;;43.60;;
45714;SDS011;31430;61.646;24.704;2023-06-05T00:27:31;41.05;;;38.50;;
45714;SDS011;31430;61.646;24.704;2023-06-05T00:29:57;37.33;;;35.03;;
45714;SDS011;31430;61.646;24.704;2023-06-05T00:32:22;35.83;;;33.60;;
45714;SDS011;31430;61.646;24.704;2023-06-05T00:34:48;35.25;;;33.05;;
45714;SDS011;31430;61.646;24.704;2023-06-05T00:37:15;33.33;;;31.23;;
45714;SDS011;31430;61.646;24.704;2023-06-05T00:39:41;32.63;;;30.60;;
45714;SDS011;31430;61.646;24.704;2023-06-05T00:42:09;32.13;;;30.13;;
45714;SDS011;31430;61.646;24.704;2023-06-05T00:44:35;30.23;;;28.33;;
45714;SDS011;31430;61.646;24.704;2023-06-05T00:47:01;31.95;;;29.95;;
45714;SDS011;31430;61.646;24.704;2023-06-05T00:49:28;30.83;;;28.92;;
45714;SDS011;31430;61.646;24.704;2023-06-05T00:54:21;32.03;;;30.02;;
45714;SDS011;31430;61.646;24.704;2023-06-05T00:56:47;32.33;;;30.33;;
45714;SDS011;31430;61.646;24.704;2023-06-05T00:59:13;31.08;;;29.13;;
45714;SDS011;31430;61.646;24.704;2023-06-05T01:01:39;30.70;;;28.80;;
45714;SDS011;31430;61.646;24.704;2023-06-05T01:04:08;31.27;;;29.33;;
45714;SDS011;31430;61.646;24.704;2023-06-05T01:06:34;31.33;;;29.35;;
45714;SDS011;31430;61.646;24.704;2023-06-05T01:09:03;31.10;;;29.15;;
45714;SDS011;31430;61.646;24.704;2023-06-05T01:16:41;28.83;;;27.02;;
45714;SDS011;31430;61.646;24.704;2023-06-05T01:19:09;30.33;;;28.42;;
45714;SDS011;31430;61.646;24.704;2023-06-05T01:21:39;30.40;;;28.50;;
45714;SDS011;31430;61.646;24.704;2023-06-05T01:24:05;29.27;;;27.45;;
45714;SDS011;31430;61.646;24.704;2023-06-05T01:32:05;30.15;;;28.25;;
45714;SDS011;31430;61.646;24.704;2023-06-05T01:34:41;31.90;;;29.90;;
45714;SDS011;31430;61.646;24.704;2023-06-05T01:37:09;30.52;;;28.63;;
45714;SDS011;31430;61.646;24.704;2023-06-05T01:39:39;30.23;;;28.33;;
45714;SDS011;31430;61.646;24.704;2023-06-05T01:42:07;31.73;;;29.73;;
45714;SDS011;31430;61.646;24.704;2023-06-05T01:44:35;31.33;;;29.35;;
45714;SDS011;31430;61.646;24.704;2023-06-05T01:47:01;28.95;;;27.15;;
45714;SDS011;31430;61.646;24.704;2023-06-05T01:49:27;32.13;;;30.13;;
45714;SDS011;31430;61.646;24.704;2023-06-05T01:51:53;31.52;;;29.52;;
45714;SDS011;31430;61.646;24.704;2023-06-05T01:54:20;30.35;;;28.45;;
45714;SDS011;31430;61.646;24.704;2023-06-05T01:56:49;30.33;;;28.42;;
45714;SDS011;31430;61.646;24.704;2023-06-05T01:59:15;30.88;;;28.95;;
45714;SDS011;31430;61.646;24.704;2023-06-05T02:01:41;29.80;;;27.92;;
45714;SDS011;31430;61.646;24.704;2023-06-05T02:04:09;30.27;;;28.38;;
45714;SDS011;31430;61.646;24.704;2023-06-05T02:06:35;29.40;;;27.58;;
45714;SDS011;31430;61.646;24.704;2023-06-05T02:09:06;30.10;;;28.20;;
45714;SDS011;31430;61.646;24.704;2023-06-05T02:11:37;29.25;;;27.45;;
45714;SDS011;31430;61.646;24.704;2023-06-05T02:14:04;30.00;;;28.10;;
45714;SDS011;31430;61.646;24.704;2023-06-05T02:16:31;30.98;;;29.05;;
45714;SDS011;31430;61.646;24.704;2023-06-05T02:18:58;30.25;;;28.35;;
45714;SDS011;31430;61.646;24.704;2023-06-05T02:21:31;30.77;;;28.88;;
45714;SDS011;31430;61.646;24.704;2023-06-05T02:23:58;30.05;;;28.15;;
45714;SDS011;31430;61.646;24.704;2023-06-05T02:26:25;30.02;;;28.13;;
45714;SDS011;31430;61.646;24.704;2023-06-05T02:28:51;30.50;;;28.60;;
45714;SDS011;31430;61.646;24.704;2023-06-05T02:31:20;30.80;;;28.90;;
45714;SDS011;31430;61.646;24.704;2023-06-05T02:33:49;30.25;;;28.35;;
45714;SDS011;31430;61.646;24.704;2023-06-05T02:36:16;30.60;;;28.70;;
45714;SDS011;31430;61.646;24.704;2023-06-05T02:38:42;30.60;;;28.70;;
45714;SDS011;31430;61.646;24.704;2023-06-05T02:41:08;30.42;;;28.52;;
45714;SDS011;31430;61.646;24.704;2023-06-05T02:45:59;31.77;;;29.77;;
45714;SDS011;31430;61.646;24.704;2023-06-05T02:48:25;30.95;;;29.02;;
45714;SDS011;31430;61.646;24.704;2023-06-05T02:50:51;31.60;;;29.60;;
45714;SDS011;31430;61.646;24.704;2023-06-05T02:53:16;29.25;;;27.45;;
45714;SDS011;31430;61.646;24.704;2023-06-05T02:55:43;31.23;;;29.27;;
45714;SDS011;31430;61.646;24.704;2023-06-05T02:58:09;30.67;;;28.77;;
45714;SDS011;31430;61.646;24.704;2023-06-05T03:00:38;29.92;;;28.02;;
45714;SDS011;31430;61.646;24.704;2023-06-05T03:05:31;32.22;;;30.23;;
45714;SDS011;31430;61.646;24.704;2023-06-05T03:07:58;31.60;;;29.63;;
45714;SDS011;31430;61.646;24.704;2023-06-05T03:10:26;30.63;;;28.73;;
45714;SDS011;31430;61.646;24.704;2023-06-05T03:12:53;31.52;;;29.55;;
45714;SDS011;31430;61.646;24.704;2023-06-05T03:15:18;29.90;;;28.00;;
45714;SDS011;31430;61.646;24.704;2023-06-05T03:17:44;30.70;;;28.80;;
45714;SDS011;31430;61.646;24.704;2023-06-05T03:20:10;29.95;;;28.05;;
45714;SDS011;31430;61.646;24.704;2023-06-05T03:22:37;30.05;;;28.15;;
45714;SDS011;31430;61.646;24.704;2023-06-05T03:25:04;30.20;;;28.30;;
45714;SDS011;31430;61.646;24.704;2023-06-05T03:27:31;29.38;;;27.55;;
45714;SDS011;31430;61.646;24.704;2023-06-05T03:29:56;29.05;;;27.25;;
45714;SDS011;31430;61.646;24.704;2023-06-05T03:32:23;29.00;;;27.20;;
45714;SDS011;31430;61.646;24.704;2023-06-05T03:34:50;29.00;;;27.20;;
45714;SDS011;31430;61.646;24.704;2023-06-05T03:37:15;27.73;;;26.00;;
45714;SDS011;31430;61.646;24.704;2023-06-05T03:39:41;30.13;;;28.23;;
45714;SDS011;31430;61.646;24.704;2023-06-05T03:42:07;28.70;;;26.90;;
45714;SDS011;31430;61.646;24.704;2023-06-05T03:44:36;28.48;;;26.67;;
45714;SDS011;31430;61.646;24.704;2023-06-05T03:47:03;28.50;;;26.70;;
45714;SDS011;31430;61.646;24.704;2023-06-05T03:49:29;28.98;;;27.17;;
45714;SDS011;31430;61.646;24.704;2023-06-05T03:51:55;27.40;;;25.70;;
45714;SDS011;31430;61.646;24.704;2023-06-05T03:54:27;29.95;;;28.05;;
45714;SDS011;31430;61.646;24.704;2023-06-05T03:56:57;29.15;;;27.35;;
45714;SDS011;31430;61.646;24.704;2023-06-05T03:59:25;28.80;;;27.00;;
45714;SDS011;31430;61.646;24.704;2023-06-05T04:01:53;29.00;;;27.20;;
45714;SDS011;31430;61.646;24.704;2023-06-05T04:04:20;28.02;;;26.25;;
45714;SDS011;31430;61.646;24.704;2023-06-05T04:06:46;27.23;;;25.52;;
45714;SDS011;31430;61.646;24.704;2023-06-05T04:09:12;27.83;;;26.10;;
45714;SDS011;31430;61.646;24.704;2023-06-05T04:11:41;27.10;;;25.40;;
45714;SDS011;31430;61.646;24.704;2023-06-05T04:14:09;28.08;;;26.30;;
45714;SDS011;31430;61.646;24.704;2023-06-05T04:16:36;27.73;;;26.00;;
45714;SDS011;31430;61.646;24.704;2023-06-05T04:19:08;28.33;;;26.52;;
45714;SDS011;31430;61.646;24.704;2023-06-05T04:21:35;27.20;;;25.50;;
45714;SDS011;31430;61.646;24.704;2023-06-05T04:24:05;28.60;;;26.80;;
45714;SDS011;31430;61.646;24.704;2023-06-05T04:26:37;28.73;;;26.92;;
45714;SDS011;31430;61.646;24.704;2023-06-05T04:29:06;27.88;;;26.13;;
45714;SDS011;31430;61.646;24.704;2023-06-05T04:31:38;27.50;;;25.80;;
45714;SDS011;31430;61.646;24.704;2023-06-05T04:34:06;27.77;;;26.05;;
45714;SDS011;31430;61.646;24.704;2023-06-05T04:36:33;26.75;;;25.05;;
45714;SDS011;31430;61.646;24.704;2023-06-05T04:38:59;27.55;;;25.85;;
45714;SDS011;31430;61.646;24.704;2023-06-05T04:41:42;27.90;;;26.15;;
45714;SDS011;31430;61.646;24.704;2023-06-05T04:44:13;28.60;;;26.80;;
45714;SDS011;31430;61.646;24.704;2023-06-05T04:46:41;28.85;;;27.05;;
45714;SDS011;31430;61.646;24.704;2023-06-05T04:49:11;27.58;;;25.88;;
45714;SDS011;31430;61.646;24.704;2023-06-05T04:51:37;27.50;;;25.80;;
45714;SDS011;31430;61.646;24.704;2023-06-05T04:54:03;28.63;;;26.83;;
45714;SDS011;31430;61.646;24.704;2023-06-05T04:56:30;27.55;;;25.85;;
45714;SDS011;31430;61.646;24.704;2023-06-05T04:58:57;27.67;;;25.95;;
45714;SDS011;31430;61.646;24.704;2023-06-05T05:01:24;27.48;;;25.77;;
45714;SDS011;31430;61.646;24.704;2023-06-05T05:03:52;28.55;;;26.75;;
45714;SDS011;31430;61.646;24.704;2023-06-05T05:06:19;28.30;;;26.50;;
45714;SDS011;31430;61.646;24.704;2023-06-05T05:08:46;28.52;;;26.73;;
45714;SDS011;31430;61.646;24.704;2023-06-05T05:11:15;28.70;;;26.90;;
45714;SDS011;31430;61.646;24.704;2023-06-05T05:13:44;27.52;;;25.80;;
45714;SDS011;31430;61.646;24.704;2023-06-05T05:16:10;27.00;;;25.30;;
45714;SDS011;31430;61.646;24.704;2023-06-05T05:18:40;27.35;;;25.65;;
45714;SDS011;31430;61.646;24.704;2023-06-05T05:21:08;27.75;;;26.02;;
45714;SDS011;31430;61.646;24.704;2023-06-05T05:23:33;27.13;;;25.42;;
45714;SDS011;31430;61.646;24.704;2023-06-05T05:25:59;28.38;;;26.58;;
45714;SDS011;31430;61.646;24.704;2023-06-05T05:28:26;28.10;;;26.33;;
45714;SDS011;31430;61.646;24.704;2023-06-05T05:30:52;27.92;;;26.17;;
45714;SDS011;31430;61.646;24.704;2023-06-05T05:33:21;28.40;;;26.60;;
45714;SDS011;31430;61.646;24.704;2023-06-05T05:35:47;28.17;;;26.40;;
45714;SDS011;31430;61.646;24.704;2023-06-05T05:38:13;27.45;;;25.75;;
45714;SDS011;31430;61.646;24.704;2023-06-05T05:40:39;27.40;;;25.70;;
45714;SDS011;31430;61.646;24.704;2023-06-05T05:43:05;27.38;;;25.67;;
45714;SDS011;31430;61.646;24.704;2023-06-05T05:45:31;27.88;;;26.13;;
45714;SDS011;31430;61.646;24.704;2023-06-05T05:47:56;26.80;;;25.10;;
45714;SDS011;31430;61.646;24.704;2023-06-05T05:50:22;25.95;;;24.35;;
45714;SDS011;31430;61.646;24.704;2023-06-05T05:52:48;26.10;;;24.48;;
45714;SDS011;31430;61.646;24.704;2023-06-05T05:55:15;27.23;;;25.52;;
45714;SDS011;31430;61.646;24.704;2023-06-05T05:57:41;26.30;;;24.65;;
45714;SDS011;31430;61.646;24.704;2023-06-05T06:00:07;26.90;;;25.20;;
45714;SDS011;31430;61.646;24.704;2023-06-05T06:02:40;27.55;;;25.85;;
45714;SDS011;31430;61.646;24.704;2023-06-05T06:05:07;26.50;;;24.83;;
45714;SDS011;31430;61.646;24.704;2023-06-05T06:10:00;29.00;;;27.20;;
45714;SDS011;31430;61.646;24.704;2023-06-05T06:12:26;28.90;;;27.10;;
45714;SDS011;31430;61.646;24.704;2023-06-05T06:14:53;28.25;;;26.45;;
45714;SDS011;31430;61.646;24.704;2023-06-05T06:17:20;27.55;;;25.85;;
45714;SDS011;31430;61.646;24.704;2023-06-05T06:19:45;27.48;;;25.77;;
45714;SDS011;31430;61.646;24.704;2023-06-05T06:22:13;28.95;;;27.15;;
45714;SDS011;31430;61.646;24.704;2023-06-05T06:24:40;27.08;;;25.38;;
45714;SDS011;31430;61.646;24.704;2023-06-05T06:27:07;26.13;;;24.50;;
45714;SDS011;31430;61.646;24.704;2023-06-05T06:29:34;26.45;;;24.77;;
45714;SDS011;31430;61.646;24.704;2023-06-05T06:31:59;27.30;;;25.60;;
45714;SDS011;31430;61.646;24.704;2023-06-05T06:34:25;27.45;;;25.75;;
45714;SDS011;31430;61.646;24.704;2023-06-05T06:36:51;25.92;;;24.33;;
45714;SDS011;31430;61.646;24.704;2023-06-05T06:39:17;27.50;;;25.80;;
45714;SDS011;31430;61.646;24.704;2023-06-05T06:41:47;26.60;;;24.90;;
45714;SDS011;31430;61.646;24.704;2023-06-05T06:44:12;25.45;;;23.85;;
45714;SDS011;31430;61.646;24.704;2023-06-05T06:46:38;26.55;;;24.88;;
45714;SDS011;31430;61.646;24.704;2023-06-05T06:49:04;25.85;;;24.25;;
45714;SDS011;31430;61.646;24.704;2023-06-05T06:51:31;27.27;;;25.58;;
45714;SDS011;31430;61.646;24.704;2023-06-05T06:56:23;28.30;;;26.50;;
45714;SDS011;31430;61.646;24.704;2023-06-05T06:58:48;26.98;;;25.27;;
45714;SDS011;31430;61.646;24.704;2023-06-05T07:01:14;26.65;;;24.95;;
45714;SDS011;31430;61.646;24.704;2023-06-05T07:03:40;26.30;;;24.65;;
45714;SDS011;31430;61.646;24.704;2023-06-05T07:06:07;26.52;;;24.85;;
45714;SDS011;31430;61.646;24.704;2023-06-05T07:08:34;26.27;;;24.63;;
45714;SDS011;31430;61.646;24.704;2023-06-05T07:11:00;27.60;;;25.90;;
45714;SDS011;31430;61.646;24.704;2023-06-05T07:13:25;25.73;;;24.13;;
45714;SDS011;31430;61.646;24.704;2023-06-05T07:15:51;26.38;;;24.73;;
45714;SDS011;31430;61.646;24.704;2023-06-05T07:18:17;25.73;;;24.13;;
45714;SDS011;31430;61.646;24.704;2023-06-05T07:20:44;26.38;;;24.73;;
45714;SDS011;31430;61.646;24.704;2023-06-05T07:23:10;25.42;;;23.83;;
45714;SDS011;31430;61.646;24.704;2023-06-05T07:25:35;26.42;;;24.75;;
45714;SDS011;31430;61.646;24.704;2023-06-05T07:28:05;26.40;;;24.73;;
45714;SDS011;31430;61.646;24.704;2023-06-05T07:30:33;25.45;;;23.85;;
45714;SDS011;31430;61.646;24.704;2023-06-05T07:32:58;25.08;;;23.48;;
45714;SDS011;31430;61.646;24.704;2023-06-05T07:35:24;25.02;;;23.42;;
45714;SDS011;31430;61.646;24.704;2023-06-05T07:37:50;25.20;;;23.60;;
45714;SDS011;31430;61.646;24.704;2023-06-05T07:42:42;27.40;;;25.70;;
45714;SDS011;31430;61.646;24.704;2023-06-05T07:45:08;26.65;;;24.95;;
45714;SDS011;31430;61.646;24.704;2023-06-05T07:47:34;26.25;;;24.60;;
45714;SDS011;31430;61.646;24.704;2023-06-05T07:50:00;26.65;;;24.95;;
45714;SDS011;31430;61.646;24.704;2023-06-05T07:52:29;25.17;;;23.58;;
45714;SDS011;31430;61.646;24.704;2023-06-05T07:54:56;25.80;;;24.20;;
45714;SDS011;31430;61.646;24.704;2023-06-05T07:57:22;25.60;;;24.00;;
45714;SDS011;31430;61.646;24.704;2023-06-05T07:59:49;25.65;;;24.05;;
45714;SDS011;31430;61.646;24.704;2023-06-05T08:02:17;25.55;;;23.95;;
45714;SDS011;31430;61.646;24.704;2023-06-05T08:04:43;25.10;;;23.50;;
45714;SDS011;31430;61.646;24.704;2023-06-05T08:07:09;25.13;;;23.52;;
45714;SDS011;31430;61.646;24.704;2023-06-05T08:09:35;25.75;;;24.15;;
45714;SDS011;31430;61.646;24.704;2023-06-05T08:12:02;25.33;;;23.73;;
45714;SDS011;31430;61.646;24.704;2023-06-05T08:14:28;25.75;;;24.15;;
45714;SDS011;31430;61.646;24.704;2023-06-05T08:16:54;25.10;;;23.50;;
45714;SDS011;31430;61.646;24.704;2023-06-05T08:21:46;27.55;;;25.85;;
45714;SDS011;31430;61.646;24.704;2023-06-05T08:24:15;25.83;;;24.23;;
45714;SDS011;31430;61.646;24.704;2023-06-05T08:26:40;25.30;;;23.70;;
45714;SDS011;31430;61.646;24.704;2023-06-05T08:29:06;26.80;;;25.10;;
45714;SDS011;31430;61.646;24.704;2023-06-05T08:31:32;25.33;;;23.73;;
45714;SDS011;31430;61.646;24.704;2023-06-05T08:33:59;26.52;;;24.85;;
45714;SDS011;31430;61.646;24.704;2023-06-05T08:36:25;25.02;;;23.42;;
45714;SDS011;31430;61.646;24.704;2023-06-05T08:38:50;25.70;;;24.10;;
45714;SDS011;31430;61.646;24.704;2023-06-05T08:41:16;25.55;;;23.95;;
45714;SDS011;31430;61.646;24.704;2023-06-05T08:46:10;25.77;;;24.17;;
45714;SDS011;31430;61.646;24.704;2023-06-05T08:48:37;25.92;;;24.33;;
45714;SDS011;31430;61.646;24.704;2023-06-05T08:51:16;26.40;;;24.73;;
45714;SDS011;31430;61.646;24.704;2023-06-05T08:53:46;25.58;;;23.98;;
45714;SDS011;31430;61.646;24.704;2023-06-05T08:56:16;24.73;;;23.15;;
45714;SDS011;31430;61.646;24.704;2023-06-05T08:58:43;24.88;;;23.30;;
45714;SDS011;31430;61.646;24.704;2023-06-05T09:01:10;25.05;;;23.45;;
45714;SDS011;31430;61.646;24.704;2023-06-05T09:03:35;24.15;;;22.65;;
45714;SDS011;31430;61.646;24.704;2023-06-05T09:06:01;24.83;;;23.25;;
45714;SDS011;31430;61.646;24.704;2023-06-05T09:08:31;24.40;;;22.90;;
45714;SDS011;31430;61.646;24.704;2023-06-05T09:13:46;24.60;;;23.08;;
45714;SDS011;31430;61.646;24.704;2023-06-05T09:16:13;25.52;;;23.92;;
45714;SDS011;31430;61.646;24.704;2023-06-05T09:18:51;24.85;;;23.27;;
45714;SDS011;31430;61.646;24.704;2023-06-05T09:21:21;24.35;;;22.85;;
45714;SDS011;31430;61.646;24.704;2023-06-05T09:24:09;24.55;;;23.02;;
45714;SDS011;31430;61.646;24.704;2023-06-05T09:26:55;25.85;;;24.25;;
45714;SDS011;31430;61.646;24.704;2023-06-05T09:31:56;24.05;;;22.55;;
45714;SDS011;31430;61.646;24.704;2023-06-05T09:34:28;24.35;;;22.85;;
45714;SDS011;31430;61.646;24.704;2023-06-05T09:36:55;25.20;;;23.60;;
45714;SDS011;31430;61.646;24.704;2023-06-05T09:39:23;23.83;;;22.33;;
45714;SDS011;31430;61.646;24.704;2023-06-05T09:41:52;24.13;;;22.63;;
45714;SDS011;31430;61.646;24.704;2023-06-05T09:44:22;23.90;;;22.40;;
45714;SDS011;31430;61.646;24.704;2023-06-05T09:46:58;24.83;;;23.25;;
45714;SDS011;31430;61.646;24.704;2023-06-05T09:51:52;23.40;;;21.90;;
45714;SDS011;31430;61.646;24.704;2023-06-05T09:54:18;23.98;;;22.48;;
45714;SDS011;31430;61.646;24.704;2023-06-05T09:56:46;23.60;;;22.10;;
45714;SDS011;31430;61.646;24.704;2023-06-05T09:59:21;23.40;;;21.90;;
45714;SDS011;31430;61.646;24.704;2023-06-05T10:01:50;23.23;;;21.75;;
45714;SDS011;31430;61.646;24.704;2023-06-05T10:04:22;23.85;;;22.35;;
45714;SDS011;31430;61.646;24.704;2023-06-05T10:06:50;23.35;;;21.85;;
45714;SDS011;31430;61.646;24.704;2023-06-05T10:09:17;23.23;;;21.75;;
45714;SDS011;31430;61.646;24.704;2023-06-05T10:14:12;24.02;;;22.52;;
45714;SDS011;31430;61.646;24.704;2023-06-05T10:16:39;23.70;;;22.20;;
45714;SDS011;31430;61.646;24.704;2023-06-05T10:19:05;23.42;;;21.92;;
45714;SDS011;31430;61.646;24.704;2023-06-05T10:21:32;23.75;;;22.25;;
45714;SDS011;31430;61.646;24.704;2023-06-05T10:24:11;22.35;;;20.95;;
45714;SDS011;31430;61.646;24.704;2023-06-05T10:37:53;23.55;;;22.05;;
45714;SDS011;31430;61.646;24.704;2023-06-05T10:40:32;23.45;;;21.95;;
45714;SDS011;31430;61.646;24.704;2023-06-05T10:45:54;23.80;;;22.30;;
45714;SDS011;31430;61.646;24.704;2023-06-05T10:48:20;23.13;;;21.65;;
45714;SDS011;31430;61.646;24.704;2023-06-05T10:50:46;22.88;;;21.45;;
45714;SDS011;31430;61.646;24.704;2023-06-05T10:56:07;22.67;;;21.27;;
45714;SDS011;31430;61.646;24.704;2023-06-05T10:58:32;22.73;;;21.33;;
45714;SDS011;31430;61.646;24.704;2023-06-05T11:03:58;22.88;;;21.45;;
45714;SDS011;31430;61.646;24.704;2023-06-05T11:06:25;22.92;;;21.50;;
45714;SDS011;31430;61.646;24.704;2023-06-05T11:14:23;22.17;;;20.77;;
45714;SDS011;31430;61.646;24.704;2023-06-05T11:16:50;22.05;;;20.65;;
45714;SDS011;31430;61.646;24.704;2023-06-05T11:22:06;22.40;;;21.00;;
45714;SDS011;31430;61.646;24.704;2023-06-05T11:24:33;22.13;;;20.73;;
45714;SDS011;31430;61.646;24.704;2023-06-05T11:27:01;22.88;;;21.45;;
45714;SDS011;31430;61.646;24.704;2023-06-05T11:29:28;22.63;;;21.23;;
45714;SDS011;31430;61.646;24.704;2023-06-05T11:31:54;22.40;;;21.00;;
45714;SDS011;31430;61.646;24.704;2023-06-05T11:34:20;22.63;;;21.23;;
45714;SDS011;31430;61.646;24.704;2023-06-05T11:36:46;23.58;;;22.08;;
45714;SDS011;31430;61.646;24.704;2023-06-05T11:41:49;23.45;;;21.95;;
45714;SDS011;31430;61.646;24.704;2023-06-05T11:44:38;23.55;;;22.05;;
45714;SDS011;31430;61.646;24.704;2023-06-05T11:47:03;23.48;;;21.98;;
45714;SDS011;31430;61.646;24.704;2023-06-05T11:49:29;23.00;;;21.55;;
45714;SDS011;31430;61.646;24.704;2023-06-05T11:51:55;22.20;;;20.80;;
45714;SDS011;31430;61.646;24.704;2023-06-05T11:56:50;23.30;;;21.80;;
45714;SDS011;31430;61.646;24.704;2023-06-05T11:59:20;23.92;;;22.42;;
45714;SDS011;31430;61.646;24.704;2023-06-05T12:01:46;23.77;;;22.27;;
45714;SDS011;31430;61.646;24.704;2023-06-05T12:04:14;23.45;;;21.95;;
45714;SDS011;31430;61.646;24.704;2023-06-05T12:06:40;22.88;;;21.45;;
45714;SDS011;31430;61.646;24.704;2023-06-05T12:09:11;23.13;;;21.65;;
45714;SDS011;31430;61.646;24.704;2023-06-05T12:11:39;23.65;;;22.15;;
45714;SDS011;31430;61.646;24.704;2023-06-05T12:14:05;22.88;;;21.45;;
45714;SDS011;31430;61.646;24.704;2023-06-05T12:16:38;23.05;;;21.60;;
45714;SDS011;31430;61.646;24.704;2023-06-05T12:19:17;23.23;;;21.75;;
45714;SDS011;31430;61.646;24.704;2023-06-05T12:21:43;23.25;;;21.75;;
45714;SDS011;31430;61.646;24.704;2023-06-05T12:24:11;22.88;;;21.45;;
45714;SDS011;31430;61.646;24.704;2023-06-05T12:26:59;22.88;;;21.45;;
45714;SDS011;31430;61.646;24.704;2023-06-05T12:29:28;22.60;;;21.20;;
45714;SDS011;31430;61.646;24.704;2023-06-05T12:31:55;22.73;;;21.33;;
45714;SDS011;31430;61.646;24.704;2023-06-05T12:34:40;23.38;;;21.88;;
45714;SDS011;31430;61.646;24.704;2023-06-05T12:37:48;23.40;;;21.90;;
45714;SDS011;31430;61.646;24.704;2023-06-05T12:40:12;23.65;;;22.15;;
45714;SDS011;31430;61.646;24.704;2023-06-05T12:42:39;23.95;;;22.45;;
45714;SDS011;31430;61.646;24.704;2023-06-05T12:45:08;22.77;;;21.38;;
45714;SDS011;31430;61.646;24.704;2023-06-05T12:47:36;22.65;;;21.25;;
45714;SDS011;31430;61.646;24.704;2023-06-05T12:50:03;22.88;;;21.45;;
45714;SDS011;31430;61.646;24.704;2023-06-05T12:52:30;22.77;;;21.38;;
45714;SDS011;31430;61.646;24.704;2023-06-05T12:54:56;22.55;;;21.15;;
45714;SDS011;31430;61.646;24.704;2023-06-05T12:57:22;22.45;;;21.05;;
45714;SDS011;31430;61.646;24.704;2023-06-05T12:59:49;22.55;;;21.15;;
45714;SDS011;31430;61.646;24.704;2023-06-05T13:02:19;22.65;;;21.25;;
45714;SDS011;31430;61.646;24.704;2023-06-05T13:04:45;22.25;;;20.85;;
45714;SDS011;31430;61.646;24.704;2023-06-05T13:07:11;22.67;;;21.27;;
45714;SDS011;31430;61.646;24.704;2023-06-05T13:09:37;23.38;;;21.88;;
45714;SDS011;31430;61.646;24.704;2023-06-05T13:12:03;23.05;;;21.60;;
45714;SDS011;31430;61.646;24.704;2023-06-05T13:14:29;22.75;;;21.35;;
45714;SDS011;31430;61.646;24.704;2023-06-05T13:16:56;22.95;;;21.50;;
45714;SDS011;31430;61.646;24.704;2023-06-05T13:19:22;22.95;;;21.52;;
45714;SDS011;31430;61.646;24.704;2023-06-05T13:21:48;23.15;;;21.65;;
45714;SDS011;31430;61.646;24.704;2023-06-05T13:24:15;23.45;;;21.95;;
45714;SDS011;31430;61.646;24.704;2023-06-05T13:26:41;23.65;;;22.15;;
45714;SDS011;31430;61.646;24.704;2023-06-05T13:29:08;22.58;;;21.17;;
45714;SDS011;31430;61.646;24.704;2023-06-05T13:31:34;22.67;;;21.27;;
45714;SDS011;31430;61.646;24.704;2023-06-05T13:34:00;22.77;;;21.38;;
45714;SDS011;31430;61.646;24.704;2023-06-05T13:36:26;22.45;;;21.05;;
45714;SDS011;31430;61.646;24.704;2023-06-05T13:40:42;22.45;;;21.05;;
45714;SDS011;31430;61.646;24.704;2023-06-05T13:43:12;21.75;;;20.35;;
45714;SDS011;31430;61.646;24.704;2023-06-05T13:48:16;23.02;;;21.58;;
45714;SDS011;31430;61.646;24.704;2023-06-05T13:50:42;22.30;;;20.90;;
45714;SDS011;31430;61.646;24.704;2023-06-05T13:59:43;28.92;;;27.13;;
45714;SDS011;31430;61.646;24.704;2023-06-05T14:02:10;26.42;;;24.75;;
45714;SDS011;31430;61.646;24.704;2023-06-05T14:04:36;24.23;;;22.73;;
45714;SDS011;31430;61.646;24.704;2023-06-05T14:15:32;36.83;;;34.53;;
45714;SDS011;31430;61.646;24.704;2023-06-05T14:18:00;30.00;;;28.10;;
45714;SDS011;31430;61.646;24.704;2023-06-05T14:20:28;27.73;;;26.00;;
45714;SDS011;31430;61.646;24.704;2023-06-05T14:22:55;25.23;;;23.63;;
45714;SDS011;31430;61.646;24.704;2023-06-05T14:25:21;24.45;;;22.95;;
45714;SDS011;31430;61.646;24.704;2023-06-05T14:27:47;25.33;;;23.73;;
45714;SDS011;31430;61.646;24.704;2023-06-05T14:30:14;22.92;;;21.48;;
45714;SDS011;31430;61.646;24.704;2023-06-05T14:32:40;23.42;;;21.92;;
45714;SDS011;31430;61.646;24.704;2023-06-05T14:35:07;23.25;;;21.77;;
45714;SDS011;31430;61.646;24.704;2023-06-05T14:37:33;22.45;;;21.05;;
45714;SDS011;31430;61.646;24.704;2023-06-05T14:39:58;23.17;;;21.70;;
45714;SDS011;31430;61.646;24.704;2023-06-05T14:42:24;23.05;;;21.60;;
45714;SDS011;31430;61.646;24.704;2023-06-05T14:44:50;22.85;;;21.42;;
45714;SDS011;31430;61.646;24.704;2023-06-05T14:47:15;23.27;;;21.77;;
45714;SDS011;31430;61.646;24.704;2023-06-05T14:49:41;23.40;;;21.90;;
45714;SDS011;31430;61.646;24.704;2023-06-05T14:52:07;21.95;;;20.55;;
45714;SDS011;31430;61.646;24.704;2023-06-05T14:54:33;22.52;;;21.13;;
45714;SDS011;31430;61.646;24.704;2023-06-05T14:56:58;23.40;;;21.90;;
45714;SDS011;31430;61.646;24.704;2023-06-05T14:59:24;22.88;;;21.45;;
45714;SDS011;31430;61.646;24.704;2023-06-05T15:01:49;22.58;;;21.17;;
45714;SDS011;31430;61.646;24.704;2023-06-05T15:04:15;23.27;;;21.80;;
45714;SDS011;31430;61.646;24.704;2023-06-05T15:06:41;22.73;;;21.33;;
45714;SDS011;31430;61.646;24.704;2023-06-05T15:09:06;22.35;;;20.95;;
45714;SDS011;31430;61.646;24.704;2023-06-05T15:11:32;22.80;;;21.38;;
45714;SDS011;31430;61.646;24.704;2023-06-05T15:13:58;22.55;;;21.15;;
45714;SDS011;31430;61.646;24.704;2023-06-05T15:16:23;22.38;;;20.98;;
45714;SDS011;31430;61.646;24.704;2023-06-05T15:18:51;22.75;;;21.35;;
45714;SDS011;31430;61.646;24.704;2023-06-05T15:21:17;22.55;;;21.15;;
45714;SDS011;31430;61.646;24.704;2023-06-05T15:23:42;22.40;;;21.00;;
45714;SDS011;31430;61.646;24.704;2023-06-05T15:26:08;22.27;;;20.88;;
45714;SDS011;31430;61.646;24.704;2023-06-05T15:28:34;23.75;;;22.25;;
45714;SDS011;31430;61.646;24.704;2023-06-05T15:31:00;23.40;;;21.90;;
45714;SDS011;31430;61.646;24.704;2023-06-05T15:33:25;23.00;;;21.55;;
45714;SDS011;31430;61.646;24.704;2023-06-05T15:35:51;22.50;;;21.10;;
45714;SDS011;31430;61.646;24.704;2023-06-05T15:38:17;23.70;;;22.20;;
45714;SDS011;31430;61.646;24.704;2023-06-05T15:40:42;22.67;;;21.27;;
45714;SDS011;31430;61.646;24.704;2023-06-05T15:43:09;24.13;;;22.63;;
45714;SDS011;31430;61.646;24.704;2023-06-05T15:45:38;22.88;;;21.45;;
45714;SDS011;31430;61.646;24.704;2023-06-05T15:48:04;23.27;;;21.77;;
45714;SDS011;31430;61.646;24.704;2023-06-05T15:50:30;22.92;;;21.50;;
45714;SDS011;31430;61.646;24.704;2023-06-05T15:52:57;22.83;;;21.42;;
45714;SDS011;31430;61.646;24.704;2023-06-05T15:55:23;23.17;;;21.67;;
45714;SDS011;31430;61.646;24.704;2023-06-05T15:57:48;22.75;;;21.35;;